createdAt,value
2022-11-20T00:01:28.740Z,49.15
2022-11-20T00:03:58.963Z,48.83
2022-11-20T00:06:28.182Z,49.46
2022-11-20T00:08:57.725Z,49.16
2022-11-20T00:11:26.721Z,49.54
2022-11-20T00:13:58.323Z,49.84
2022-11-20T00:16:27.726Z,49.74
2022-11-20T00:18:55.832Z,49.40
2022-11-20T00:21:25.831Z,49.51
2022-11-20T00:23:56.182Z,50.27
2022-11-20T00:26:25.637Z,49.76
2022-11-20T00:28:56.438Z,50.14
2022-11-20T00:31:24.213Z,49.66
2022-11-20T00:33:51.973Z,49.67
2022-11-20T00:36:24.827Z,49.48
2022-11-20T00:38:57.074Z,50.21
2022-11-20T00:41:25.638Z,49.17
2022-11-20T00:43:54.518Z,49.05
2022-11-20T00:46:24.787Z,49.08
2022-11-20T00:48:52.669Z,49.33
2022-11-20T00:51:22.561Z,49.90
2022-11-20T00:53:50.647Z,49.78
2022-11-20T00:56:20.045Z,50.12
2022-11-20T00:58:49.320Z,49.71
2022-11-20T01:01:18.025Z,50.50
2022-11-20T01:03:48.532Z,50.55
2022-11-20T01:06:17.275Z,50.20
2022-11-20T01:08:45.444Z,50.06
2022-11-20T01:11:16.004Z,49.32
2022-11-20T01:13:44.826Z,49.58
2022-11-20T01:16:19.288Z,49.90
2022-11-20T01:18:48.593Z,49.55
2022-11-20T01:21:22.194Z,49.55
2022-11-20T01:23:50.776Z,49.39
2022-11-20T01:26:21.333Z,48.76
2022-11-20T01:28:49.406Z,48.62
2022-11-20T01:31:19.880Z,48.09
2022-11-20T01:33:49.426Z,48.38
2022-11-20T01:36:18.921Z,49.13
2022-11-20T01:38:46.778Z,48.57
2022-11-20T01:41:36.263Z,48.17
2022-11-20T01:44:05.070Z,48.27
2022-11-20T01:46:41.142Z,49.42
2022-11-20T01:49:38.737Z,49.13
2022-11-20T01:52:12.556Z,48.36
2022-11-20T01:54:42.439Z,48.69
2022-11-20T01:57:13.734Z,48.56
2022-11-20T01:59:49.245Z,48.45
2022-11-20T02:02:22.246Z,47.52
2022-11-20T02:04:53.026Z,47.85
2022-11-20T02:07:21.319Z,48.77
2022-11-20T02:09:48.854Z,47.56
2022-11-20T02:12:34.819Z,48.14
2022-11-20T02:15:25.115Z,47.94
2022-11-20T02:17:56.381Z,48.30
2022-11-20T02:20:23.871Z,47.86
2022-11-20T02:23:14.091Z,48.66
2022-11-20T02:25:44.899Z,48.17
2022-11-20T02:28:12.269Z,49.08
2022-11-20T02:30:39.647Z,49.16
2022-11-20T02:33:06.987Z,48.76
2022-11-20T02:35:34.339Z,48.33
2022-11-20T02:38:03.924Z,48.43
2022-11-20T02:40:31.419Z,47.98
2022-11-20T02:42:58.888Z,48.37
2022-11-20T02:45:26.631Z,47.91
2022-11-20T02:47:54.364Z,48.22
2022-11-20T02:50:21.911Z,48.37
2022-11-20T02:52:49.292Z,48.09
2022-11-20T02:55:16.782Z,49.05
2022-11-20T02:57:44.607Z,48.72
2022-11-20T03:00:12.732Z,48.72
2022-11-20T03:02:40.060Z,49.09
2022-11-20T03:05:07.902Z,48.51
2022-11-20T03:07:35.341Z,48.81
2022-11-20T03:10:05.531Z,48.13
2022-11-20T03:12:33.048Z,48.03
2022-11-20T03:15:00.425Z,49.21
2022-11-20T03:17:28.039Z,47.94
2022-11-20T03:19:55.357Z,48.02
2022-11-20T03:22:41.162Z,49.40
2022-11-20T03:25:18.640Z,48.80
2022-11-20T03:28:15.582Z,48.14
2022-11-20T03:30:49.028Z,48.01
2022-11-20T03:33:29.662Z,47.61
2022-11-20T03:36:09.476Z,47.14
2022-11-20T03:38:37.489Z,46.79
2022-11-20T03:41:07.696Z,47.37
2022-11-20T03:43:35.660Z,47.82
2022-11-20T03:46:06.435Z,48.36
2022-11-20T03:48:36.760Z,47.99
2022-11-20T03:51:14.291Z,48.65
2022-11-20T03:53:43.468Z,47.32
2022-11-20T03:56:12.450Z,48.25
2022-11-20T03:58:41.745Z,49.10
2022-11-20T04:01:14.765Z,50.31
2022-11-20T04:03:43.667Z,49.25
2022-11-20T04:06:15.180Z,47.43
2022-11-20T04:08:43.310Z,47.05
2022-11-20T04:11:10.742Z,46.77
2022-11-20T04:13:38.414Z,46.73
2022-11-20T04:16:07.947Z,46.68
2022-11-20T04:18:35.903Z,47.18
2022-11-20T04:21:04.826Z,46.50
2022-11-20T04:23:32.445Z,46.75
2022-11-20T04:26:08.651Z,46.97
2022-11-20T04:28:36.683Z,46.63
2022-11-20T04:31:12.877Z,47.49
2022-11-20T04:33:41.401Z,46.36
2022-11-20T04:36:15.858Z,46.44
2022-11-20T04:38:43.681Z,46.51
2022-11-20T04:41:17.855Z,46.88
2022-11-20T04:43:50.174Z,46.55
2022-11-20T04:46:19.107Z,46.14
2022-11-20T04:48:47.671Z,45.07
2022-11-20T04:51:15.024Z,45.59
2022-11-20T04:53:43.186Z,44.87
2022-11-20T04:56:13.006Z,44.04
2022-11-20T04:58:41.194Z,45.01
2022-11-20T05:01:20.741Z,45.87
2022-11-20T05:03:48.508Z,44.23
2022-11-20T05:06:18.198Z,45.63
2022-11-20T05:08:45.619Z,46.00
2022-11-20T05:11:16.064Z,45.80
2022-11-20T05:13:43.608Z,45.82
2022-11-20T05:16:13.633Z,47.01
2022-11-20T05:18:41.715Z,46.82
2022-11-20T05:21:11.220Z,46.24
2022-11-20T05:23:39.532Z,46.24
2022-11-20T05:26:09.144Z,44.89
2022-11-20T05:28:36.580Z,43.37
2022-11-20T05:31:15.593Z,45.17
2022-11-20T05:33:44.785Z,44.94
2022-11-20T05:36:14.917Z,45.67
2022-11-20T05:38:43.269Z,46.22
2022-11-20T05:41:19.236Z,46.67
2022-11-20T05:43:47.939Z,47.27
2022-11-20T05:46:24.739Z,46.38
2022-11-20T05:48:55.860Z,45.29
2022-11-20T05:51:23.414Z,46.31
2022-11-20T05:53:50.845Z,45.61
2022-11-20T05:56:21.111Z,44.83
2022-11-20T05:58:49.745Z,45.39
2022-11-20T06:01:23.417Z,45.63
2022-11-20T06:03:52.215Z,45.94
2022-11-20T06:06:23.349Z,45.56
2022-11-20T06:08:51.141Z,45.78
2022-11-20T06:11:19.083Z,46.10
2022-11-20T06:13:47.575Z,45.66
2022-11-20T06:16:18.038Z,45.15
2022-11-20T06:18:46.103Z,44.80
2022-11-20T06:21:18.611Z,44.40
2022-11-20T06:23:46.477Z,45.56
2022-11-20T06:26:17.501Z,45.13
2022-11-20T06:28:45.060Z,45.13
2022-11-20T06:31:15.528Z,45.00
2022-11-20T06:33:44.122Z,44.60
2022-11-20T06:36:13.711Z,44.53
2022-11-20T06:38:42.264Z,44.28
2022-11-20T06:41:16.140Z,44.26
2022-11-20T06:43:43.658Z,44.31
2022-11-20T06:46:13.207Z,43.54
2022-11-20T06:48:50.718Z,42.32
2022-11-20T06:51:38.936Z,42.89
2022-11-20T06:54:06.641Z,43.23
2022-11-20T06:56:40.083Z,42.73
2022-11-20T06:59:08.537Z,43.41
2022-11-20T07:01:38.155Z,42.14
2022-11-20T07:04:05.889Z,42.85
2022-11-20T07:06:33.865Z,43.21
2022-11-20T07:09:01.370Z,42.49
2022-11-20T07:11:31.176Z,43.22
2022-11-20T07:13:58.890Z,43.08
2022-11-20T07:16:26.587Z,43.12
2022-11-20T07:18:54.224Z,44.13
2022-11-20T07:21:24.752Z,43.16
2022-11-20T07:23:52.516Z,43.44
2022-11-20T07:26:23.740Z,42.33
2022-11-20T07:28:56.109Z,42.73
2022-11-20T07:31:24.084Z,43.07
2022-11-20T07:33:51.833Z,42.25
2022-11-20T07:36:19.495Z,41.76
2022-11-20T07:38:47.055Z,41.21
2022-11-20T07:41:14.515Z,41.03
2022-11-20T07:43:42.001Z,41.55
2022-11-20T07:46:09.554Z,42.98
2022-11-20T07:48:37.026Z,42.45
2022-11-20T07:51:04.494Z,41.03
2022-11-20T07:53:31.906Z,41.79
2022-11-20T07:56:04.040Z,41.40
2022-11-20T07:58:34.105Z,41.34
2022-11-20T08:01:06.490Z,41.37
2022-11-20T08:03:34.509Z,40.37
2022-11-20T08:06:06.055Z,41.83
2022-11-20T08:08:37.814Z,40.70
2022-11-20T08:11:26.408Z,42.40
2022-11-20T08:14:12.075Z,41.16
2022-11-20T08:16:48.236Z,41.16
2022-11-20T08:19:17.925Z,40.96
2022-11-20T08:21:45.923Z,40.65
2022-11-20T08:24:13.783Z,40.51
2022-11-20T08:26:41.852Z,40.21
2022-11-20T08:29:09.516Z,41.27
2022-11-20T08:31:37.118Z,41.22
2022-11-20T08:34:09.007Z,40.53
2022-11-20T08:36:37.377Z,40.00
2022-11-20T08:39:05.084Z,41.53
2022-11-20T08:41:38.236Z,39.44
2022-11-20T08:44:41.331Z,39.46
2022-11-20T08:47:29.649Z,40.48
2022-11-20T08:50:41.782Z,39.08
2022-11-20T08:53:19.073Z,38.71
2022-11-20T08:55:58.995Z,39.68
2022-11-20T08:58:27.363Z,39.20
2022-11-20T09:00:55.378Z,39.13
2022-11-20T09:03:23.028Z,38.15
2022-11-20T09:05:50.511Z,39.13
2022-11-20T09:08:17.893Z,40.19
2022-11-20T09:10:45.292Z,45.70
2022-11-20T09:13:12.704Z,42.44
2022-11-20T09:15:40.294Z,42.61
2022-11-20T09:18:08.061Z,41.43
2022-11-20T09:20:45.274Z,41.43
2022-11-20T09:27:09.404Z,39.70
2022-11-20T09:30:48.416Z,43.93
2022-11-20T09:34:03.796Z,41.29
2022-11-20T09:37:30.556Z,41.49
2022-11-20T09:39:58.428Z,40.71
2022-11-20T09:42:29.555Z,41.18
2022-11-20T09:45:10.463Z,40.75
2022-11-20T09:48:05.924Z,40.03
2022-11-20T09:50:43.736Z,39.81
2022-11-20T09:53:20.275Z,39.52
2022-11-20T09:55:49.274Z,39.59
2022-11-20T09:58:30.951Z,40.23
2022-11-20T10:01:12.944Z,40.40
2022-11-20T10:03:50.585Z,40.47
2022-11-20T10:06:21.721Z,46.02
2022-11-20T10:09:18.134Z,43.83
2022-11-20T10:12:08.339Z,42.78
2022-11-20T10:14:59.007Z,42.16
2022-11-20T10:17:48.442Z,42.04
2022-11-20T10:20:27.946Z,41.50
2022-11-20T10:23:06.256Z,40.82
2022-11-20T10:25:46.714Z,41.04
2022-11-20T10:28:55.523Z,41.36
2022-11-20T10:31:41.578Z,40.84
2022-11-20T10:34:24.494Z,41.00
2022-11-20T10:37:05.001Z,41.83
2022-11-20T10:39:49.374Z,42.17
2022-11-20T10:42:24.964Z,40.87
2022-11-20T10:45:05.756Z,41.82
2022-11-20T10:47:34.497Z,41.19
2022-11-20T10:50:12.140Z,41.56
2022-11-20T10:53:05.359Z,42.13
2022-11-20T10:55:51.979Z,42.49
2022-11-20T10:58:38.684Z,43.13
2022-11-20T11:01:07.466Z,43.81
2022-11-20T11:03:35.211Z,43.03
2022-11-20T11:06:18.871Z,42.27
2022-11-20T11:08:49.055Z,41.93
2022-11-20T11:11:30.163Z,41.76
2022-11-20T11:14:08.517Z,41.78
2022-11-20T11:16:36.272Z,41.55
2022-11-20T11:19:08.525Z,42.36
2022-11-20T11:21:37.188Z,42.29
2022-11-20T11:24:34.620Z,43.10
2022-11-20T11:27:00.270Z,42.18
2022-11-20T11:29:30.828Z,42.11
2022-11-20T11:32:21.502Z,43.11
2022-11-20T11:35:23.473Z,43.10
2022-11-20T11:37:52.450Z,41.68
2022-11-20T11:40:25.072Z,41.50
2022-11-20T11:43:00.415Z,42.87
2022-11-20T11:45:28.939Z,42.26
2022-11-20T11:48:02.143Z,41.34
2022-11-20T11:50:31.055Z,42.42
2022-11-20T11:53:15.974Z,44.28
2022-11-20T11:56:02.053Z,43.21
2022-11-20T11:58:53.543Z,43.02
2022-11-20T12:01:56.780Z,42.49
2022-11-20T12:04:49.480Z,41.61
2022-11-20T12:08:11.010Z,41.23
2022-11-20T12:11:06.207Z,42.78
2022-11-20T12:13:48.765Z,43.82
2022-11-20T12:16:20.290Z,43.45
2022-11-20T12:18:51.726Z,42.19
2022-11-20T12:21:28.867Z,41.87
2022-11-20T12:24:08.603Z,43.21
2022-11-20T12:27:05.210Z,42.81
2022-11-20T12:30:02.395Z,43.36
2022-11-20T12:32:54.302Z,43.79
2022-11-20T12:36:06.558Z,43.58
2022-11-20T12:39:21.674Z,43.22
2022-11-20T12:42:36.759Z,44.18
2022-11-20T12:45:36.554Z,44.69
2022-11-20T12:48:33.119Z,43.64
2022-11-20T12:51:22.517Z,43.66
2022-11-20T12:54:07.174Z,44.44
2022-11-20T12:57:04.141Z,45.11
2022-11-20T12:59:55.765Z,44.69
2022-11-20T13:02:50.820Z,44.76
2022-11-20T13:05:24.112Z,44.22
2022-11-20T13:07:54.734Z,44.13
2022-11-20T13:10:40.611Z,44.95
2022-11-20T13:13:26.061Z,45.47
2022-11-20T13:16:03.922Z,45.63
2022-11-20T13:18:40.159Z,44.06
2022-11-20T13:21:18.192Z,45.08
2022-11-20T13:23:45.921Z,44.59
2022-11-20T13:26:24.836Z,45.83
2022-11-20T13:29:10.792Z,45.16
2022-11-20T13:31:44.156Z,44.76
2022-11-20T13:34:37.329Z,44.50
2022-11-20T13:37:07.543Z,44.65
2022-11-20T13:39:37.485Z,44.57
2022-11-20T13:42:28.046Z,44.70
2022-11-20T13:44:56.849Z,44.92
2022-11-20T13:47:26.669Z,43.91
2022-11-20T13:49:56.393Z,44.27
2022-11-20T13:52:45.919Z,45.08
2022-11-20T13:55:50.206Z,44.24
2022-11-20T13:58:30.031Z,45.15
2022-11-20T14:01:16.554Z,45.27
2022-11-20T14:04:05.080Z,44.71
2022-11-20T14:06:43.450Z,46.29
2022-11-20T14:09:36.542Z,44.75
2022-11-20T14:12:05.456Z,44.86
2022-11-20T14:14:35.073Z,44.24
2022-11-20T14:17:18.683Z,44.41
2022-11-20T14:19:48.304Z,44.58
2022-11-20T14:22:21.369Z,44.23
2022-11-20T14:24:50.010Z,44.80
2022-11-20T14:27:22.544Z,45.52
2022-11-20T14:29:52.146Z,43.22
2022-11-20T14:32:23.372Z,43.90
2022-11-20T14:34:52.115Z,45.03
2022-11-20T14:37:34.799Z,46.06
2022-11-20T14:40:02.214Z,45.50
2022-11-20T14:42:32.160Z,45.69
2022-11-20T14:45:02.205Z,45.76
2022-11-20T14:47:32.629Z,45.97
2022-11-20T14:50:08.676Z,46.30
2022-11-20T14:52:38.581Z,45.48
2022-11-20T14:55:06.484Z,46.37
2022-11-20T14:57:37.265Z,45.62
2022-11-20T15:00:15.718Z,46.32
2022-11-20T15:02:45.806Z,45.01
2022-11-20T15:05:16.389Z,45.53
2022-11-20T15:07:48.259Z,44.97
2022-11-20T15:10:27.462Z,45.54
2022-11-20T15:13:03.794Z,45.13
2022-11-20T15:15:51.442Z,46.07
2022-11-20T15:18:25.711Z,45.36
2022-11-20T15:20:55.106Z,45.23
2022-11-20T15:23:22.586Z,45.14
2022-11-20T15:25:51.065Z,44.47
2022-11-20T15:28:32.081Z,43.64
2022-11-20T15:30:59.686Z,44.03
2022-11-20T15:33:27.258Z,45.00
2022-11-20T15:35:54.938Z,44.93
2022-11-20T15:38:22.599Z,44.47
2022-11-20T15:40:50.092Z,45.34
2022-11-20T15:43:17.550Z,44.77
2022-11-20T15:46:17.053Z,45.05
2022-11-20T15:48:52.772Z,44.89
2022-11-20T15:51:26.326Z,45.01
2022-11-20T15:53:54.099Z,44.80
2022-11-20T15:56:21.551Z,45.18
2022-11-20T15:58:49.204Z,44.39
2022-11-20T16:01:19.916Z,43.52
2022-11-20T16:03:48.141Z,43.94
2022-11-20T16:06:17.510Z,44.56
2022-11-20T16:08:45.282Z,44.01
2022-11-20T16:11:18.935Z,45.10
2022-11-20T16:14:06.278Z,44.85
2022-11-20T16:16:36.736Z,44.91
2022-11-20T16:19:07.566Z,44.36
2022-11-20T16:21:36.137Z,45.04
2022-11-20T16:24:06.513Z,44.49
2022-11-20T16:26:35.074Z,45.00
2022-11-20T16:29:04.855Z,44.87
2022-11-20T16:31:33.500Z,44.95
2022-11-20T16:34:10.196Z,44.43
2022-11-20T16:36:44.917Z,44.86
2022-11-20T16:39:13.475Z,44.20
2022-11-20T16:41:41.007Z,44.94
2022-11-20T16:44:11.941Z,46.33
2022-11-20T16:46:41.088Z,46.52
2022-11-20T16:49:13.850Z,44.70
2022-11-20T16:51:42.224Z,44.22
2022-11-20T16:54:13.037Z,43.95
2022-11-20T16:56:43.447Z,44.11
2022-11-20T16:59:14.117Z,44.84
2022-11-20T17:01:43.397Z,45.19
2022-11-20T17:04:11.083Z,44.47
2022-11-20T17:06:42.268Z,45.05
2022-11-20T17:09:11.189Z,44.21
2022-11-20T17:11:39.113Z,43.82
2022-11-20T17:14:09.768Z,44.97
2022-11-20T17:16:38.664Z,44.44
2022-11-20T17:19:09.216Z,45.42
2022-11-20T17:21:37.465Z,45.99
2022-11-20T17:24:07.137Z,44.83
2022-11-20T17:26:35.505Z,45.25
2022-11-20T17:29:10.302Z,46.79
2022-11-20T17:31:40.979Z,46.01
2022-11-20T17:34:14.124Z,46.07
2022-11-20T17:36:46.188Z,45.36
2022-11-20T17:39:17.859Z,45.71
2022-11-20T17:41:45.803Z,45.14
2022-11-20T17:44:13.665Z,44.10
2022-11-20T17:46:41.323Z,45.71
2022-11-20T17:49:09.054Z,46.11
2022-11-20T17:51:36.598Z,45.62
2022-11-20T17:54:07.782Z,45.71
2022-11-20T17:56:55.032Z,46.02
2022-11-20T17:59:23.149Z,46.55
2022-11-20T18:01:50.975Z,45.71
2022-11-20T18:04:18.622Z,46.48
2022-11-20T18:06:46.370Z,45.72
2022-11-20T18:09:14.061Z,45.62
2022-11-20T18:11:42.802Z,45.42
2022-11-20T18:14:36.745Z,45.15
2022-11-20T18:17:07.613Z,44.89
2022-11-20T18:19:48.058Z,45.94
2022-11-20T18:22:31.200Z,45.25
2022-11-20T18:24:59.004Z,45.30
2022-11-20T18:27:26.510Z,44.72
2022-11-20T18:29:54.088Z,45.06
2022-11-20T18:32:22.984Z,45.01
2022-11-20T18:34:51.534Z,45.75
2022-11-20T18:37:20.187Z,45.09
2022-11-20T18:39:47.699Z,45.86
2022-11-20T18:42:35.134Z,46.35
2022-11-20T18:45:04.719Z,45.85
2022-11-20T18:47:38.176Z,45.67
2022-11-20T18:50:07.463Z,45.43
2022-11-20T18:52:39.751Z,46.14
2022-11-20T18:55:08.216Z,45.77
2022-11-20T18:57:35.881Z,45.73
2022-11-20T19:00:08.948Z,46.02
2022-11-20T19:02:42.052Z,45.61
2022-11-20T19:05:14.893Z,46.03
2022-11-20T19:07:43.336Z,45.86
2022-11-20T19:10:10.939Z,46.22
2022-11-20T19:12:38.562Z,45.55
2022-11-20T19:15:06.490Z,44.99
2022-11-20T19:17:35.050Z,46.02
2022-11-20T19:20:02.464Z,45.93
2022-11-20T19:22:31.416Z,45.95
2022-11-20T19:24:58.896Z,45.63
2022-11-20T19:27:26.450Z,45.60
2022-11-20T19:29:57.763Z,45.69
2022-11-20T19:32:25.271Z,45.61
2022-11-20T19:34:52.799Z,45.96
2022-11-20T19:37:20.237Z,45.68
2022-11-20T19:39:47.580Z,46.39
2022-11-20T19:42:15.159Z,46.56
2022-11-20T19:44:42.583Z,46.69
2022-11-20T19:47:14.176Z,45.26
2022-11-20T19:49:42.392Z,45.75
2022-11-20T19:52:09.953Z,45.92
2022-11-20T19:54:37.567Z,45.64
2022-11-20T19:57:04.957Z,46.06
2022-11-20T19:59:32.345Z,46.22
2022-11-20T20:01:59.811Z,46.58
2022-11-20T20:04:27.615Z,45.18
2022-11-20T20:06:55.263Z,45.54
2022-11-20T20:09:24.082Z,46.43
2022-11-20T20:11:51.532Z,46.69
2022-11-20T20:14:19.492Z,46.57
2022-11-20T20:16:47.139Z,45.26
2022-11-20T20:19:17.433Z,45.68
2022-11-20T20:21:45.147Z,46.45
2022-11-20T20:24:12.749Z,44.58
2022-11-20T20:26:40.354Z,46.42
2022-11-20T20:29:07.863Z,46.12
2022-11-20T20:31:35.845Z,45.04
2022-11-20T20:34:05.584Z,45.82
2022-11-20T20:36:33.469Z,46.75
2022-11-20T20:39:02.972Z,46.57
2022-11-20T20:41:31.262Z,46.57
2022-11-20T20:44:17.461Z,46.54
2022-11-20T20:46:44.804Z,46.32
2022-11-20T20:49:12.318Z,46.77
2022-11-20T20:51:39.786Z,46.97
2022-11-20T20:54:07.139Z,47.34
2022-11-20T20:56:34.767Z,46.83
2022-11-20T20:59:03.333Z,47.08
2022-11-20T21:01:30.777Z,46.17
2022-11-20T21:03:58.222Z,46.80
2022-11-20T21:06:26.224Z,47.62
2022-11-20T21:08:56.119Z,47.50
2022-11-20T21:11:23.620Z,47.86
2022-11-20T21:13:51.160Z,47.93
2022-11-20T21:16:25.218Z,47.77
2022-11-20T21:18:52.690Z,47.78
2022-11-20T21:21:38.364Z,46.74
2022-11-20T21:24:06.540Z,47.19
2022-11-20T21:26:34.354Z,46.84
2022-11-20T21:29:01.836Z,47.01
2022-11-20T21:31:30.348Z,46.85
2022-11-20T21:33:58.479Z,46.67
2022-11-20T21:36:28.495Z,47.10
2022-11-20T21:38:57.252Z,47.41
2022-11-20T21:41:26.958Z,47.11
2022-11-20T21:44:29.034Z,46.66
2022-11-20T21:46:45.075Z,47.11
2022-11-20T21:49:13.353Z,46.90
2022-11-20T21:51:41.063Z,47.50
2022-11-20T21:54:10.509Z,47.82
2022-11-20T21:56:37.989Z,46.39
2022-11-20T21:59:05.327Z,47.41
2022-11-20T22:01:32.779Z,47.50
2022-11-20T22:04:02.566Z,47.48
2022-11-20T22:06:35.602Z,48.03
2022-11-20T22:09:04.241Z,47.46
2022-11-20T22:11:31.721Z,47.37
2022-11-20T22:14:17.815Z,47.71
2022-11-20T22:16:45.236Z,47.83
2022-11-20T22:19:16.390Z,48.82
2022-11-20T22:21:43.813Z,48.58
2022-11-20T22:24:17.360Z,48.92
2022-11-20T22:26:45.006Z,48.74
2022-11-20T22:29:21.168Z,49.06
2022-11-20T22:31:51.228Z,47.65
2022-11-20T22:34:18.581Z,48.18
2022-11-20T22:36:45.986Z,48.19
2022-11-20T22:39:13.378Z,47.35
2022-11-20T22:41:40.765Z,47.05
2022-11-20T22:44:09.289Z,48.09
2022-11-20T22:46:38.153Z,48.55
2022-11-20T22:49:08.781Z,47.14
2022-11-20T22:51:39.579Z,48.03
2022-11-20T22:54:08.078Z,48.67
2022-11-20T22:56:35.577Z,48.70
2022-11-20T22:59:03.336Z,48.39
2022-11-20T23:01:33.001Z,49.23
2022-11-20T23:04:02.150Z,50.24
2022-11-20T23:06:30.578Z,50.50
2022-11-20T23:08:57.922Z,50.82
2022-11-20T23:11:27.848Z,50.45
2022-11-20T23:14:00.580Z,49.06
2022-11-20T23:16:29.989Z,49.32
2022-11-20T23:19:03.415Z,49.45
2022-11-20T23:21:30.847Z,49.19
2022-11-20T23:23:59.585Z,48.49
2022-11-20T23:26:35.049Z,49.55
2022-11-20T23:29:03.572Z,49.22
2022-11-20T23:31:32.977Z,50.14
2022-11-20T23:34:00.980Z,48.13
2022-11-20T23:36:28.795Z,48.39
2022-11-20T23:38:56.774Z,49.78
2022-11-20T23:41:29.170Z,48.97
2022-11-20T23:44:00.174Z,48.66
2022-11-20T23:46:27.809Z,48.44
2022-11-20T23:48:55.264Z,48.57
2022-11-20T23:51:22.721Z,47.75
2022-11-20T23:53:50.041Z,48.29
2022-11-20T23:56:17.510Z,47.37
2022-11-20T23:58:44.967Z,46.88
